Time;durP1;ratioP1;P1;durP2;ratioP2;P2;SDS_P1;SDS_P2;PMS_P1;PMS_P2;Temp;Humidity;BMP_temperature;BMP_pressure;BME280_temperature;BME280_humidity;BME280_pressure;Samples;Min_cycle;Max_cycle;Signal;HPM_P1;HPM_P2
2022/09/07 00:01:06;;;;;;;2.33;2.13;;;;;;;16.93;100.00;96268.66;5032318;28;101844;-60
2022/09/07 00:03:34;;;;;;;2.80;2.10;;;;;;;16.91;100.00;96278.91;5031939;27;102390;-59
2022/09/07 00:06:06;;;;;;;2.00;1.90;;;;;;;16.89;100.00;96272.25;5031055;28;103157;-59
2022/09/07 00:08:34;;;;;;;2.63;2.10;;;;;;;16.94;100.00;96269.47;5030033;28;102010;-59
2022/09/07 00:11:03;;;;;;;3.77;2.20;;;;;;;16.85;100.00;96265.84;5032102;27;102794;-59
2022/09/07 00:13:38;;;;;;;2.23;1.80;;;;;;;16.77;100.00;96266.50;5030106;28;106168;-59
2022/09/07 00:16:07;;;;;;;1.97;1.70;;;;;;;16.57;100.00;96264.13;5030221;28;101827;-59
2022/09/07 00:18:34;;;;;;;2.00;1.90;;;;;;;16.55;100.00;96267.09;5032185;28;102635;-59
2022/09/07 00:21:04;;;;;;;2.60;2.20;;;;;;;16.53;100.00;96260.41;5033309;28;105647;-60
2022/09/07 00:23:32;;;;;;;2.23;2.03;;;;;;;16.49;100.00;96262.06;5030540;28;105846;-59
2022/09/07 00:26:00;;;;;;;4.83;2.03;;;;;;;16.48;100.00;96264.00;5031134;28;103207;-60
2022/09/07 00:28:28;;;;;;;2.40;2.20;;;;;;;16.58;100.00;96261.13;5031513;28;101999;-59
2022/09/07 00:30:57;;;;;;;2.33;2.10;;;;;;;16.55;100.00;96261.72;5031626;28;104052;-59
2022/09/07 00:33:24;;;;;;;2.30;2.10;;;;;;;16.40;100.00;96261.94;5031012;28;102632;-59
2022/09/07 00:35:51;;;;;;;2.57;2.23;;;;;;;16.45;100.00;96264.56;5031671;28;101900;-59
2022/09/07 00:38:18;;;;;;;2.53;2.33;;;;;;;16.48;100.00;96261.31;5031758;27;102245;-59
2022/09/07 00:40:45;;;;;;;3.57;2.57;;;;;;;16.55;100.00;96258.22;5029737;28;105459;-60
2022/09/07 00:43:16;;;;;;;3.00;2.40;;;;;;;16.55;100.00;96255.53;5017003;28;101961;-60
2022/09/07 00:45:43;;;;;;;5.83;2.73;;;;;;;16.57;100.00;96250.72;5031058;28;103141;-60
2022/09/07 00:48:16;;;;;;;3.07;2.70;;;;;;;16.51;100.00;96258.03;5029803;28;102081;-60
2022/09/07 00:50:46;;;;;;;5.00;3.07;;;;;;;16.38;100.00;96252.53;5031820;28;102898;-59
2022/09/07 00:53:17;;;;;;;2.67;2.47;;;;;;;16.31;100.00;96255.59;5030487;28;104214;-60
2022/09/07 00:55:47;;;;;;;2.93;2.63;;;;;;;16.37;100.00;96265.19;5031333;27;101750;-60
2022/09/07 00:58:15;;;;;;;3.60;3.17;;;;;;;16.27;100.00;96268.00;5031619;27;102207;-60
2022/09/07 01:00:43;;;;;;;3.30;2.70;;;;;;;16.27;100.00;96265.31;5029222;28;105423;-60
2022/09/07 01:03:14;;;;;;;5.20;2.90;;;;;;;16.30;100.00;96269.31;5029874;28;101956;-60
2022/09/07 01:05:45;;;;;;;5.03;2.97;;;;;;;16.25;100.00;96264.78;5033387;28;102317;-60
2022/09/07 01:08:14;;;;;;;3.27;2.90;;;;;;;16.27;100.00;96261.81;5030910;28;101924;-59
2022/09/07 01:10:42;;;;;;;3.30;3.00;;;;;;;16.23;100.00;96263.47;5029846;28;105111;-60
2022/09/07 01:13:09;;;;;;;3.30;3.00;;;;;;;16.13;100.00;96266.31;5030534;28;102600;-60
2022/09/07 01:15:44;;;;;;;4.73;3.10;;;;;;;16.13;100.00;96259.03;5029521;28;102135;-60
2022/09/07 01:18:26;;;;;;;3.70;3.37;;;;;;;16.11;100.00;96260.41;5030106;27;101875;-59
2022/09/07 01:21:21;;;;;;;5.73;3.80;;;;;;;16.14;100.00;96257.19;5030367;28;103178;-59
2022/09/07 01:24:33;;;;;;;4.23;3.87;;;;;;;16.22;100.00;96254.66;5029666;28;102470;-60
2022/09/07 01:27:36;;;;;;;4.30;3.53;;;;;;;16.23;100.00;96250.06;5031181;28;102325;-59
2022/09/07 01:30:08;;;;;;;4.47;3.53;;;;;;;16.26;100.00;96246.81;5020294;27;101869;-60
2022/09/07 01:32:49;;;;;;;4.03;3.60;;;;;;;16.28;100.00;96250.00;5030888;28;103310;-59
2022/09/07 01:35:22;;;;;;;3.47;3.07;;;;;;;16.31;100.00;96252.91;5030081;28;102638;-60
2022/09/07 01:37:56;;;;;;;3.53;3.23;;;;;;;16.33;100.00;96252.63;5030919;28;101746;-59
2022/09/07 01:40:34;;;;;;;3.73;3.07;;;;;;;16.35;100.00;96259.28;5031079;28;102023;-59
2022/09/07 01:43:07;;;;;;;3.20;2.90;;;;;;;16.30;100.00;96255.88;5028818;28;105443;-60
2022/09/07 01:45:40;;;;;;;4.47;3.60;;;;;;;16.31;100.00;96260.16;5029135;28;101819;-59
2022/09/07 01:48:11;;;;;;;3.50;3.20;;;;;;;16.17;100.00;96264.63;5029289;28;105309;-59
2022/09/07 01:50:46;;;;;;;4.60;3.90;;;;;;;16.07;100.00;96270.16;5033365;28;102634;-60
2022/09/07 01:53:18;;;;;;;3.77;3.47;;;;;;;16.04;100.00;96276.88;5030746;28;102936;-59
2022/09/07 01:55:50;;;;;;;4.90;4.10;;;;;;;16.03;100.00;96275.25;5028490;28;105774;-59
2022/09/07 01:58:22;;;;;;;5.17;3.70;;;;;;;16.05;100.00;96272.31;5030752;28;101707;-59
2022/09/07 02:00:55;;;;;;;4.73;3.63;;;;;;;16.06;100.00;96274.72;5030704;27;102415;-59
2022/09/07 02:03:27;;;;;;;3.90;3.60;;;;;;;16.09;100.00;96279.47;5029830;28;102678;-59
2022/09/07 02:05:59;;;;;;;3.63;3.20;;;;;;;16.13;100.00;96279.72;5029970;27;101896;-60
2022/09/07 02:08:30;;;;;;;3.50;3.20;;;;;;;16.23;100.00;96284.94;5029029;28;105221;-60
2022/09/07 02:11:02;;;;;;;3.90;2.83;;;;;;;16.32;100.00;96283.22;5029610;27;104265;-59
2022/09/07 02:13:34;;;;;;;3.23;2.93;;;;;;;16.41;100.00;96286.91;5032307;28;101930;-59
2022/09/07 02:16:07;;;;;;;3.43;2.60;;;;;;;16.43;100.00;96290.09;5028152;28;105627;-59
2022/09/07 02:18:39;;;;;;;4.80;2.57;;;;;;;16.46;100.00;96289.53;5030197;28;101902;-60
2022/09/07 02:21:09;;;;;;;4.03;2.50;;;;;;;16.45;100.00;96290.63;5030225;27;102325;-59
2022/09/07 02:23:44;;;;;;;3.93;2.53;;;;;;;16.52;100.00;96294.50;5028156;28;105405;-59
2022/09/07 02:26:17;;;;;;;3.60;2.70;;;;;;;16.56;100.00;96292.84;5030408;28;102216;-59
2022/09/07 02:28:44;;;;;;;3.47;2.20;;;;;;;16.59;100.00;96292.28;5030032;28;102563;-59
2022/09/07 02:31:14;;;;;;;3.17;2.20;;;;;;;16.63;100.00;96292.50;5031560;27;102674;-59
2022/09/07 02:33:41;;;;;;;2.37;2.07;;;;;;;16.75;100.00;96292.84;5033740;27;102053;-59
2022/09/07 02:36:10;;;;;;;2.47;2.10;;;;;;;16.92;100.00;96298.50;5036488;28;101874;-59
2022/09/07 02:38:37;;;;;;;4.47;2.47;;;;;;;16.93;100.00;96294.72;5032214;28;101901;-59
2022/09/07 02:41:04;;;;;;;3.00;2.23;;;;;;;16.90;100.00;96293.41;5033457;27;102253;-59
2022/09/07 02:43:33;;;;;;;3.27;2.10;;;;;;;16.94;100.00;96289.06;5031424;28;105843;-60
2022/09/07 02:46:18;;;;;;;2.03;1.90;;;;;;;16.95;100.00;96287.97;5031933;28;102107;-59
2022/09/07 02:48:52;;;;;;;1.90;1.80;;;;;;;16.97;100.00;96285.00;5033064;28;102521;-59
2022/09/07 02:51:27;;;;;;;2.53;1.70;;;;;;;16.93;100.00;96295.53;5032807;28;102583;-59
2022/09/07 02:54:16;;;;;;;1.80;1.70;;;;;;;16.92;100.00;96299.31;5033655;28;101790;-59
2022/09/07 02:56:59;;;;;;;2.00;1.80;;;;;;;16.89;100.00;96307.16;5033320;28;101819;-59
2022/09/07 02:59:45;;;;;;;2.40;1.60;;;;;;;16.84;100.00;96299.19;5036112;27;102577;-59
2022/09/07 03:02:20;;;;;;;2.20;1.97;;;;;;;16.83;100.00;96297.56;5031919;28;105565;-60
2022/09/07 03:04:55;;;;;;;1.93;1.80;;;;;;;16.84;100.00;96291.13;5031114;28;104332;-59
2022/09/07 03:07:26;;;;;;;1.70;1.60;;;;;;;16.87;100.00;96285.16;5032578;28;101765;-59
2022/09/07 03:09:56;;;;;;;1.80;1.67;;;;;;;16.87;100.00;96290.50;5033437;27;102389;-59
2022/09/07 03:12:24;;;;;;;2.90;2.10;;;;;;;16.91;100.00;96278.91;5030976;28;105805;-60
2022/09/07 03:14:51;;;;;;;1.80;1.70;;;;;;;16.86;100.00;96283.56;5033142;27;101818;-59
2022/09/07 03:17:20;;;;;;;1.77;1.50;;;;;;;16.80;100.00;96274.78;5032897;28;102312;-59
2022/09/07 03:19:47;;;;;;;2.60;1.80;;;;;;;16.81;100.00;96271.00;5032492;28;101777;-59
2022/09/07 03:22:14;;;;;;;3.93;1.70;;;;;;;16.78;100.00;96260.84;5036106;27;101844;-60
2022/09/07 03:24:42;;;;;;;1.90;1.60;;;;;;;16.78;100.00;96262.75;5032312;28;102643;-59
2022/09/07 03:27:10;;;;;;;2.93;1.87;;;;;;;16.74;100.00;96264.41;5032836;27;102264;-59
2022/09/07 03:29:37;;;;;;;3.07;2.13;;;;;;;16.75;100.00;96268.69;5032835;28;102304;-59
2022/09/07 03:32:04;;;;;;;2.00;1.80;;;;;;;16.70;100.00;96268.75;5030566;28;105468;-59
2022/09/07 03:34:33;;;;;;;2.47;2.10;;;;;;;16.70;100.00;96268.75;5032487;28;101876;-60
2022/09/07 03:37:00;;;;;;;1.70;1.60;;;;;;;16.68;100.00;96277.09;5032716;28;102448;-59
2022/09/07 03:39:27;;;;;;;3.23;1.80;;;;;;;16.61;100.00;96278.53;5030750;28;106004;-59
2022/09/07 03:41:54;;;;;;;2.00;1.90;;;;;;;16.53;100.00;96274.66;5035115;27;101836;-59
2022/09/07 03:44:22;;;;;;;2.07;1.90;;;;;;;16.45;100.00;96277.97;5030498;28;105901;-59
2022/09/07 03:46:49;;;;;;;3.40;2.17;;;;;;;16.41;100.00;96281.53;5031181;28;102129;-60
2022/09/07 03:49:17;;;;;;;2.00;1.90;;;;;;;16.39;100.00;96291.75;5030960;28;105385;-59
2022/09/07 03:51:46;;;;;;;2.30;1.80;;;;;;;16.37;100.00;96288.53;5030842;28;103202;-59
2022/09/07 03:54:13;;;;;;;2.20;2.10;;;;;;;16.32;100.00;96289.41;5032393;27;102107;-59
2022/09/07 03:56:40;;;;;;;3.63;2.57;;;;;;;16.31;100.00;96298.53;5031100;28;104110;-60
2022/09/07 03:59:07;;;;;;;4.13;2.10;;;;;;;16.27;100.00;96302.06;5031675;28;102322;-59
2022/09/07 04:01:35;;;;;;;2.60;2.20;;;;;;;16.26;100.00;96284.38;5032463;27;102243;-59
2022/09/07 04:04:02;;;;;;;2.70;2.20;;;;;;;16.27;100.00;96280.59;5035049;27;102919;-59
2022/09/07 04:06:31;;;;;;;1.90;1.80;;;;;;;16.24;100.00;96286.56;5030612;28;101972;-59
2022/09/07 04:09:03;;;;;;;2.50;2.10;;;;;;;16.20;100.00;96282.84;5031338;27;102286;-59
2022/09/07 04:11:30;;;;;;;2.23;2.03;;;;;;;16.09;100.00;96294.78;5030065;28;105542;-60
2022/09/07 04:13:58;;;;;;;2.23;2.10;;;;;;;16.00;100.00;96297.31;5030311;28;101904;-59
2022/09/07 04:16:28;;;;;;;4.07;2.10;;;;;;;16.01;100.00;96301.59;5029116;28;102558;-59
2022/09/07 04:19:07;;;;;;;2.90;2.70;;;;;;;16.01;100.00;96304.28;5031636;28;102598;-59
2022/09/07 04:21:34;;;;;;;2.93;2.73;;;;;;;16.06;100.00;96304.22;5032572;28;101765;-60
2022/09/07 04:24:03;;;;;;;2.30;2.20;;;;;;;16.06;100.00;96300.72;5032222;27;102255;-59
2022/09/07 04:26:46;;;;;;;2.43;2.23;;;;;;;16.11;100.00;96292.63;5034908;28;102848;-59
2022/09/07 04:29:15;;;;;;;2.10;2.00;;;;;;;16.13;100.00;96301.19;5030840;28;105118;-60
2022/09/07 04:31:42;;;;;;;2.43;2.27;;;;;;;16.14;100.00;96298.19;5031425;28;101851;-59
2022/09/07 04:34:10;;;;;;;2.87;2.47;;;;;;;16.17;100.00;96297.63;5032784;27;102038;-59
2022/09/07 04:37:21;;;;;;;2.97;2.37;;;;;;;16.18;100.00;96301.91;5030401;28;105128;-59
2022/09/07 04:39:50;;;;;;;4.67;2.30;;;;;;;16.15;100.00;96299.81;5031054;27;103045;-59
2022/09/07 04:42:18;;;;;;;2.60;2.40;;;;;;;16.07;100.00;96308.50;5031729;28;101894;-59
2022/09/07 04:44:45;;;;;;;3.60;2.10;;;;;;;16.13;100.00;96311.91;5031508;28;102415;-59
2022/09/07 04:47:13;;;;;;;2.33;2.20;;;;;;;16.17;100.00;96310.25;5030883;28;102531;-59
2022/09/07 04:49:40;;;;;;;4.83;2.70;;;;;;;16.17;100.00;96312.94;5033497;28;102421;-60
2022/09/07 04:52:07;;;;;;;5.40;2.40;;;;;;;16.14;100.00;96310.84;5029517;28;105664;-59
2022/09/07 04:54:34;;;;;;;2.40;2.20;;;;;;;16.14;100.00;96319.66;5029963;28;101920;-60
2022/09/07 04:57:03;;;;;;;3.43;2.00;;;;;;;16.16;100.00;96314.00;5031495;28;102366;-59
2022/09/07 04:59:30;;;;;;;2.40;1.90;;;;;;;16.21;100.00;96305.91;5029279;28;105543;-59
2022/09/07 05:01:58;;;;;;;2.63;2.30;;;;;;;16.21;100.00;96309.41;5031194;28;101876;-60
2022/09/07 05:04:25;;;;;;;2.47;2.27;;;;;;;16.25;100.00;96315.00;5030016;28;105499;-59
2022/09/07 05:06:53;;;;;;;3.90;2.47;;;;;;;16.30;100.00;96320.28;5029773;28;104934;-59
2022/09/07 05:09:21;;;;;;;2.60;2.40;;;;;;;16.29;100.00;96316.03;5031289;28;101906;-59
2022/09/07 05:11:47;;;;;;;2.70;2.50;;;;;;;16.37;100.00;96320.72;5032598;28;105473;-59
2022/09/07 05:14:16;;;;;;;2.60;2.40;;;;;;;16.40;100.00;96320.19;5030885;28;101809;-59
2022/09/07 05:16:43;;;;;;;2.63;2.43;;;;;;;16.44;100.00;96324.69;5029701;28;105206;-60
2022/09/07 05:19:12;;;;;;;4.87;2.93;;;;;;;16.44;100.00;96329.25;5028996;28;104063;-59
2022/09/07 05:21:39;;;;;;;5.53;2.97;;;;;;;16.40;100.00;96334.41;5029333;28;102153;-59
2022/09/07 05:24:07;;;;;;;5.77;3.23;;;;;;;16.44;100.00;96331.94;5029505;28;105743;-59
2022/09/07 05:26:38;;;;;;;3.73;2.60;;;;;;;16.50;100.00;96333.47;5030179;28;102598;-59
2022/09/07 05:29:06;;;;;;;3.37;2.87;;;;;;;16.50;100.00;96336.16;5029325;28;101868;-59
2022/09/07 05:31:35;;;;;;;4.43;2.97;;;;;;;16.55;100.00;96341.47;5030380;28;102400;-59
2022/09/07 05:34:03;;;;;;;3.57;2.77;;;;;;;16.58;100.00;96336.31;5033802;28;102577;-60
2022/09/07 05:36:31;;;;;;;3.47;2.80;;;;;;;16.60;100.00;96334.16;5029193;28;106134;-59
2022/09/07 05:38:59;;;;;;;2.90;2.70;;;;;;;16.63;100.00;96336.25;5030422;28;102893;-59
2022/09/07 05:41:26;;;;;;;3.10;2.70;;;;;;;16.71;100.00;96329.41;5030867;28;101995;-59
2022/09/07 05:43:54;;;;;;;3.40;3.00;;;;;;;16.79;100.00;96336.84;5030519;27;102297;-59
2022/09/07 05:46:21;;;;;;;2.80;2.60;;;;;;;16.84;100.00;96339.47;5028645;28;104186;-60
2022/09/07 05:48:50;;;;;;;2.50;2.30;;;;;;;16.92;100.00;96325.34;5030759;27;101712;-59
2022/09/07 05:51:17;;;;;;;2.80;2.60;;;;;;;16.98;100.00;96329.56;5030619;28;102502;-60
2022/09/07 05:53:46;;;;;;;2.70;2.13;;;;;;;17.06;100.00;96324.31;5033462;28;102723;-59
2022/09/07 05:56:13;;;;;;;2.20;2.10;;;;;;;17.13;100.00;96327.47;5030373;27;102231;-59
2022/09/07 05:58:41;;;;;;;3.03;2.50;;;;;;;17.17;100.00;96330.34;5029984;28;102628;-59
2022/09/07 06:01:10;;;;;;;4.30;2.30;;;;;;;17.21;100.00;96328.66;5029209;28;101967;-60
2022/09/07 06:03:40;;;;;;;3.17;2.03;;;;;;;17.28;100.00;96334.47;5030062;28;102339;-59
2022/09/07 06:06:10;;;;;;;2.87;2.03;;;;;;;17.38;100.00;96334.31;5028441;28;103306;-59
2022/09/07 06:08:39;;;;;;;4.03;2.50;;;;;;;17.60;100.00;96337.19;5028958;28;101932;-61
2022/09/07 06:11:07;;;;;;;6.20;2.33;;;;;;;18.16;100.00;96340.44;5030245;27;103055;-60
2022/09/07 06:13:35;;;;;;;3.63;2.40;;;;;;;18.95;100.00;96339.88;5029633;28;103301;-60
2022/09/07 06:16:03;;;;;;;4.30;2.40;;;;;;;19.05;100.00;96334.25;5033658;28;101810;-60
2022/09/07 06:18:31;;;;;;;4.43;2.03;;;;;;;19.41;100.00;96332.34;5029444;28;102631;-60
2022/09/07 06:21:03;;;;;;;4.50;2.17;;;;;;;19.16;100.00;96335.59;5030106;28;101854;-60
2022/09/07 06:23:32;;;;;;;3.00;1.80;;;;;;;18.96;100.00;96328.00;5030258;27;102810;-60
2022/09/07 06:25:59;;;;;;;8.30;2.00;;;;;;;19.49;100.00;96328.91;5029459;28;102815;-60
2022/09/07 06:28:30;;;;;;;2.00;1.80;;;;;;;19.28;100.00;96336.69;5028596;28;101835;-60
2022/09/07 06:31:01;;;;;;;1.77;1.63;;;;;;;19.24;100.00;96340.31;5028339;28;105261;-60
2022/09/07 06:33:29;;;;;;;6.10;1.97;;;;;;;19.15;100.00;96342.91;5029395;28;103331;-60
2022/09/07 06:35:57;;;;;;;3.20;1.80;;;;;;;19.48;100.00;96343.50;5029859;27;101976;-60
2022/09/07 06:38:25;;;;;;;2.40;2.17;;;;;;;19.48;100.00;96340.78;5032973;27;102304;-60
2022/09/07 06:40:53;;;;;;;2.33;1.60;;;;;;;19.02;100.00;96334.88;5028627;28;101957;-60
2022/09/07 06:43:21;;;;;;;2.47;1.87;;;;;;;19.30;100.00;96334.47;5029680;28;102364;-61
2022/09/07 06:45:53;;;;;;;1.80;1.70;;;;;;;19.74;100.00;96344.47;5029262;28;102651;-61
2022/09/07 06:48:20;;;;;;;2.60;1.77;;;;;;;19.75;100.00;96346.03;5028573;28;101947;-60
2022/09/07 06:50:56;;;;;;;2.63;1.63;;;;;;;19.84;100.00;96346.91;5028362;28;104076;-61
2022/09/07 06:53:23;;;;;;;3.43;1.73;;;;;;;19.69;100.00;96347.28;5027723;28;105863;-60
2022/09/07 06:55:50;;;;;;;4.73;1.90;;;;;;;20.02;100.00;96346.69;5028311;28;101909;-60
2022/09/07 06:58:19;;;;;;;1.87;1.40;;;;;;;20.57;100.00;96342.47;5029870;28;102296;-61
2022/09/07 07:00:46;;;;;;;1.40;1.30;;;;;;;20.46;100.00;96345.75;5032570;27;102649;-61
2022/09/07 07:03:14;;;;;;;1.70;1.60;;;;;;;20.50;100.00;96352.91;5029594;27;102726;-61
2022/09/07 07:05:41;;;;;;;1.53;1.43;;;;;;;20.58;100.00;96354.03;5028509;28;102641;-61
2022/09/07 07:08:08;;;;;;;2.83;1.23;;;;;;;20.84;100.00;96357.59;5029685;28;102188;-60
2022/09/07 07:10:39;;;;;;;1.50;1.40;;;;;;;20.87;100.00;96357.00;5029499;27;102270;-61
2022/09/07 07:13:06;;;;;;;2.40;1.60;;;;;;;20.59;100.00;96355.66;5027544;28;105514;-60
2022/09/07 07:15:35;;;;;;;3.87;1.77;;;;;;;20.86;100.00;96350.78;5027675;28;102024;-61
2022/09/07 07:18:02;;;;;;;2.63;1.60;;;;;;;20.87;100.00;96357.75;5031619;27;102462;-61
2022/09/07 07:20:30;;;;;;;3.83;1.67;;;;;;;20.64;100.00;96363.59;5030706;28;106366;-61
2022/09/07 07:22:57;;;;;;;2.60;1.37;;;;;;;20.46;100.00;96370.88;5036515;28;101802;-61
2022/09/07 07:25:24;;;;;;;1.73;1.50;;;;;;;20.53;100.00;96365.81;5032256;28;102587;-60
2022/09/07 07:27:52;;;;;;;1.40;1.30;;;;;;;20.36;100.00;96368.44;5032820;27;101960;-60
2022/09/07 07:30:20;;;;;;;1.33;1.17;;;;;;;20.60;100.00;96371.53;5031439;28;106387;-61
2022/09/07 07:32:49;;;;;;;2.30;1.30;;;;;;;20.64;100.00;96369.00;5031824;28;104095;-61
2022/09/07 07:35:16;;;;;;;1.67;1.20;;;;;;;20.71;100.00;96378.25;5031170;28;102021;-60
2022/09/07 07:37:43;;;;;;;1.67;1.50;;;;;;;20.70;100.00;96381.28;5031443;28;105147;-61
2022/09/07 07:40:12;;;;;;;6.00;2.47;;;;;;;20.85;100.00;96380.81;5030723;28;105538;-61
2022/09/07 07:42:40;;;;;;;4.67;2.40;;;;;;;21.14;100.00;96378.38;5032222;28;101927;-60
2022/09/07 07:45:08;;;;;;;6.20;2.30;;;;;;;21.36;100.00;96383.63;5035238;28;102304;-61
2022/09/07 07:47:35;;;;;;;4.73;2.10;;;;;;;21.29;100.00;96396.81;5030835;28;102162;-61
2022/09/07 07:50:07;;;;;;;1.40;1.00;;;;;;;21.03;100.00;96387.91;5032267;27;102729;-61
2022/09/07 07:52:34;;;;;;;4.13;1.87;;;;;;;21.03;100.00;96393.31;5030092;28;105691;-61
2022/09/07 07:55:02;;;;;;;6.07;2.00;;;;;;;21.56;100.00;96397.31;5032313;27;102037;-61
2022/09/07 07:57:29;;;;;;;1.43;1.33;;;;;;;21.81;100.00;96393.81;5032460;28;102812;-61
2022/09/07 07:59:56;;;;;;;3.07;1.70;;;;;;;22.07;100.00;96391.06;5030312;28;106987;-61
2022/09/07 08:02:24;;;;;;;3.90;1.50;;;;;;;22.33;100.00;96394.44;5032125;28;101853;-61
2022/09/07 08:04:51;;;;;;;1.60;1.50;;;;;;;22.33;100.00;96408.81;5033639;28;104605;-61
2022/09/07 08:07:20;;;;;;;2.43;1.37;;;;;;;21.95;100.00;96407.13;5031866;28;102228;-61
2022/09/07 08:09:48;;;;;;;1.77;1.67;;;;;;;21.67;100.00;96419.41;5030593;28;105380;-61
2022/09/07 08:12:16;;;;;;;3.97;1.47;;;;;;;21.74;100.00;96415.16;5031267;27;102637;-61
2022/09/07 08:14:44;;;;;;;1.43;1.20;;;;;;;21.81;100.00;96422.78;5032125;27;101974;-61
2022/09/07 08:17:13;;;;;;;2.80;1.30;;;;;;;21.71;100.00;96417.69;5032000;28;102915;-61
2022/09/07 08:19:40;;;;;;;2.27;1.00;;;;;;;21.60;100.00;96429.94;5030274;28;105775;-60
2022/09/07 08:22:08;;;;;;;1.60;1.30;;;;;;;21.07;100.00;96432.09;5030482;28;101948;-61
2022/09/07 08:24:37;;;;;;;1.37;1.20;;;;;;;20.85;100.00;96424.06;5031808;28;102343;-61
2022/09/07 08:27:04;;;;;;;2.90;1.50;;;;;;;20.82;100.00;96416.59;5034700;28;102720;-61
2022/09/07 08:29:31;;;;;;;2.50;1.40;;;;;;;20.79;100.00;96417.22;5030136;27;105728;-61
2022/09/07 08:31:58;;;;;;;1.50;1.40;;;;;;;20.77;100.00;96416.75;5030644;28;102570;-61
2022/09/07 08:34:25;;;;;;;3.63;1.93;;;;;;;21.04;100.00;96421.94;5031885;28;101827;-61
2022/09/07 08:36:53;;;;;;;1.30;1.20;;;;;;;21.34;100.00;96413.69;5031700;28;102363;-61
2022/09/07 08:39:21;;;;;;;1.60;1.23;;;;;;;21.87;100.00;96418.78;5029741;28;105758;-61
2022/09/07 08:42:08;;;;;;;2.30;1.40;;;;;;;22.03;100.00;96419.88;5030396;28;101812;-60
2022/09/07 08:44:41;;;;;;;1.63;1.27;;;;;;;22.28;100.00;96410.91;5031693;27;102269;-61
2022/09/07 08:47:19;;;;;;;1.67;1.30;;;;;;;23.15;100.00;96406.34;5030777;28;102598;-61
2022/09/07 08:49:51;;;;;;;1.33;1.20;;;;;;;22.88;100.00;96400.63;5033733;28;101928;-61
2022/09/07 08:52:22;;;;;;;1.83;1.33;;;;;;;22.39;100.00;96395.88;5029480;28;105397;-61
2022/09/07 08:54:58;;;;;;;2.90;1.30;;;;;;;22.39;100.00;96404.03;5031417;28;102048;-61
2022/09/07 08:57:28;;;;;;;1.43;1.20;;;;;;;;;;5029908;28;105227;-61
2022/09/07 09:00:05;;;;;;;1.53;1.20;;;;;;;22.16;100.00;96410.75;5031058;28;102510;-61
2022/09/07 09:02:32;;;;;;;2.10;1.20;;;;;;;21.87;100.00;96402.56;5031544;27;101699;-61
2022/09/07 09:04:59;;;;;;;1.57;1.33;;;;;;;22.01;100.00;96403.94;5031372;27;102475;-61
2022/09/07 09:07:36;;;;;;;1.83;1.73;;;;;;;21.89;100.00;96401.13;5030324;28;102932;-61
2022/09/07 09:10:19;;;;;;;3.03;1.50;;;;;;;22.20;100.00;96395.47;5031258;28;101700;-61
2022/09/07 09:13:01;;;;;;;3.93;1.50;;;;;;;22.07;100.00;96394.53;5034233;28;102336;-61
2022/09/07 09:15:40;;;;;;;1.30;1.20;;;;;;;22.39;100.00;96398.59;5029571;28;102190;-61
2022/09/07 09:18:21;;;;;;;1.97;1.47;;;;;;;22.20;100.00;96400.88;5029781;28;105475;-61
2022/09/07 09:20:50;;;;;;;2.93;1.40;;;;;;;22.59;100.00;96403.31;5029141;28;105826;-61
2022/09/07 09:23:19;;;;;;;1.67;1.40;;;;;;;22.60;100.00;96399.47;5029393;28;101898;-61
2022/09/07 09:25:52;;;;;;;2.87;1.43;;;;;;;22.62;100.00;96392.59;5030892;28;102427;-61
2022/09/07 09:28:21;;;;;;;1.47;1.37;;;;;;;23.09;100.00;96385.16;5030535;28;102640;-61
2022/09/07 09:30:49;;;;;;;1.90;1.20;;;;;;;23.49;100.00;96378.19;5030860;28;101882;-61
2022/09/07 09:33:18;;;;;;;2.37;1.20;;;;;;;23.47;100.00;96375.81;5030576;27;102229;-61
2022/09/07 09:35:48;;;;;;;1.97;1.33;;;;;;;23.51;100.00;96365.88;5033303;27;102524;-61
2022/09/07 09:38:31;;;;;;;1.87;1.30;;;;;;;23.91;100.00;96366.16;5031086;28;102433;-61
2022/09/07 09:41:01;;;;;;;1.50;1.40;;;;;;;24.78;100.00;96365.63;5029335;28;102568;-61
2022/09/07 09:43:35;;;;;;;2.17;1.73;;;;;;;25.61;100.00;96361.19;5030377;28;102267;-61
2022/09/07 09:46:02;;;;;;;1.57;1.40;;;;;;;26.03;100.00;96354.19;5028891;28;105120;-61
2022/09/07 09:48:33;;;;;;;1.87;1.23;;;;;;;25.92;100.00;96350.38;5030009;27;104214;-61
2022/09/07 09:51:02;;;;;;;1.70;1.33;;;;;;;25.52;100.00;96357.78;5029134;28;101912;-61
2022/09/07 09:53:34;;;;;;;1.67;1.10;;;;;;;25.63;100.00;96346.06;5029031;28;105563;-61
2022/09/07 09:56:03;;;;;;;2.43;1.40;;;;;;;25.65;100.00;96342.97;5030108;28;101825;-61
2022/09/07 09:58:34;;;;;;;1.57;1.20;;;;;;;25.36;100.00;96338.69;5033824;28;101706;-61
2022/09/07 10:01:03;;;;;;;2.40;1.20;;;;;;;25.59;100.00;96336.19;5029665;28;103194;-61
2022/09/07 10:03:31;;;;;;;1.77;1.20;;;;;;;25.31;100.00;96324.50;5030313;28;101839;-61
2022/09/07 10:06:00;;;;;;;2.27;1.20;;;;;;;25.45;100.00;96328.41;5028548;28;105529;-61
2022/09/07 10:08:29;;;;;;;2.30;1.37;;;;;;;25.49;100.00;96329.31;5029863;28;102750;-61
2022/09/07 10:10:59;;;;;;;2.93;1.40;;;;;;;25.77;100.00;96342.94;5029996;28;101824;-61
2022/09/07 10:13:30;;;;;;;1.60;1.00;;;;;;;25.94;100.00;96334.50;5030084;28;103657;-61
2022/09/07 10:16:02;;;;;;;1.23;0.97;;;;;;;26.15;100.00;96327.66;5029459;27;104252;-61
2022/09/07 10:18:34;;;;;;;2.67;1.10;;;;;;;26.26;100.00;96327.94;5033965;27;101710;-61
2022/09/07 10:21:24;;;;;;;3.83;1.27;;;;;;;26.16;100.00;96326.50;5027957;28;105713;-61
2022/09/07 10:23:55;;;;;;;4.20;1.30;;;;;;;26.19;100.00;96327.72;5030324;27;101701;-61
2022/09/07 10:26:30;;;;;;;1.67;1.23;;;;;;;26.12;100.00;96327.56;5030156;28;102489;-61
2022/09/07 10:29:12;;;;;;;2.57;1.30;;;;;;;25.96;100.00;96324.03;5028224;28;105678;-61
2022/09/07 10:31:52;;;;;;;4.53;1.23;;;;;;;25.95;100.00;96319.72;5028251;28;101964;-61
2022/09/07 10:34:29;;;;;;;1.60;1.40;;;;;;;25.58;100.00;96318.28;5028676;28;105420;-61
2022/09/07 10:37:03;;;;;;;2.50;1.23;;;;;;;25.20;100.00;96318.75;5029516;27;102642;-61
2022/09/07 10:39:35;;;;;;;2.50;1.47;;;;;;;25.56;100.00;96320.56;5030108;27;101734;-61
2022/09/07 10:42:18;;;;;;;2.80;1.70;;;;;;;25.53;100.00;96315.81;5032826;28;102375;-61
2022/09/07 10:44:58;;;;;;;1.50;1.40;;;;;;;25.26;100.00;96313.84;5028273;28;101974;-61
2022/09/07 10:47:34;;;;;;;2.90;1.53;;;;;;;24.95;100.00;96305.53;5028498;28;105510;-61
2022/09/07 10:50:07;;;;;;;2.77;1.37;;;;;;;25.16;100.00;96312.38;5029461;28;102713;-61
2022/09/07 10:52:42;;;;;;;3.13;1.50;;;;;;;25.22;100.00;96316.44;5031131;28;101799;-61
2022/09/07 10:55:16;;;;;;;1.83;1.47;;;;;;;24.82;100.00;96312.94;5033494;28;102348;-61
2022/09/07 10:57:56;;;;;;;2.60;1.30;;;;;;;24.70;100.00;96306.69;5032768;27;102651;-61
2022/09/07 11:00:25;;;;;;;2.07;1.40;;;;;;;24.79;100.00;96304.66;5033334;27;102139;-61
2022/09/07 11:03:14;;;;;;;3.13;1.30;;;;;;;25.51;100.00;96291.63;5033163;27;102521;-61
2022/09/07 11:05:53;;;;;;;2.57;1.30;;;;;;;25.65;100.00;96293.94;5035862;28;102833;-61
2022/09/07 11:08:32;;;;;;;4.20;1.40;;;;;;;25.55;100.00;96289.03;5033236;28;102354;-61
2022/09/07 11:11:10;;;;;;;3.17;1.37;;;;;;;25.92;100.00;96283.06;5030929;28;106010;-61
2022/09/07 11:13:42;;;;;;;3.10;1.43;;;;;;;25.87;100.00;96277.03;5033132;27;101771;-61
2022/09/07 11:16:15;;;;;;;1.37;1.27;;;;;;;25.67;100.00;96280.78;5032926;28;102821;-61
2022/09/07 11:18:51;;;;;;;1.53;1.10;;;;;;;25.86;100.00;96273.53;5032621;27;103154;-61
2022/09/07 11:21:23;;;;;;;3.53;1.50;;;;;;;25.75;100.00;96277.09;5033157;28;101766;-61
2022/09/07 11:23:55;;;;;;;3.07;1.40;;;;;;;25.50;100.00;96273.72;5031185;28;106259;-61
2022/09/07 11:26:27;;;;;;;3.87;1.40;;;;;;;25.56;100.00;96261.44;5030985;28;105939;-61
2022/09/07 11:28:59;;;;;;;1.43;1.00;;;;;;;25.53;100.00;96261.34;5036489;28;101884;-61
2022/09/07 11:31:31;;;;;;;1.40;1.30;;;;;;;25.13;100.00;96257.84;5032205;27;103109;-61
2022/09/07 11:34:05;;;;;;;1.70;1.30;;;;;;;25.32;100.00;96258.03;5032747;28;102129;-61